aviador You're here:

KSLB Decoded Metar

STORM LAKE in IA, USA
Report Time2017-08-22 03:15:00
UTC Time2017-08-22 03:25:41
Flight Rules vfr VFR
Wind270° at 07 kt
W.Decomp.*RWY 24: 6.3 kt HW 3.1 kt RCW
RWY 31: 5.0 kt HW 4.9 kt LCW
RWY 35: 0.7 kt HW 7 kt LCW
W.Rank270° ranks 20
Current wind is below 270° avg. (9.5)
Visibility9999 m
Phenomena:N/A
Clouds:N/A
Expected CloudBase > 400 ft AGL from Temp-Dew spread
CeilingNone
Temp18°C (ISA +6)
Dew Point17°C (94% RH)
AAT17.9°C
QNH1015 hPa
Density Alt2,385 ft
Elevation1,490 ft
Report Wrong Elevation
Raw Report
KSLB 220315Z AUTO 27007KT 10SM CLR 18/17 A2998 RMK AO2=

Extra information for KSLB:More info

Metar Taf Metar & Taf Last 4 Metars F.Rules Stats Wind Profile Meteogram Temp Stats Airport Information Weather charts Add Link Nearby VenuesMetar ALERT Operation Metar Decoded Social comments

AIRNAV info for KSLB